createdAt,value
2023-11-10T00:01:09.681Z,61.79
2023-11-10T00:03:37.399Z,61.65
2023-11-10T00:06:04.913Z,62.13
2023-11-10T00:08:32.837Z,61.51
2023-11-10T00:11:00.381Z,61.76
2023-11-10T00:13:29.334Z,62.51
2023-11-10T00:15:56.634Z,62.45
2023-11-10T00:18:24.233Z,62.43
2023-11-10T00:20:51.773Z,62.52
2023-11-10T00:23:19.292Z,62.81
2023-11-10T00:25:46.813Z,62.74
2023-11-10T00:28:14.047Z,62.60
2023-11-10T00:30:41.320Z,63.10
2023-11-10T00:33:08.992Z,62.96
2023-11-10T00:35:36.323Z,63.16
2023-11-10T00:38:04.885Z,64.08
2023-11-10T00:40:32.484Z,63.16
2023-11-10T00:42:59.760Z,63.29
2023-11-10T00:45:27.058Z,62.79
2023-11-10T00:47:54.689Z,62.19
2023-11-10T00:50:22.315Z,62.32
2023-11-10T00:52:49.562Z,63.01
2023-11-10T00:55:17.763Z,63.38
2023-11-10T00:57:45.013Z,63.66
2023-11-10T01:02:40.504Z,63.46
2023-11-10T01:05:08.591Z,63.06
2023-11-10T01:07:36.185Z,63.54
2023-11-10T01:10:03.820Z,63.25
2023-11-10T01:12:31.379Z,63.42
2023-11-10T01:14:58.992Z,63.83
2023-11-10T01:17:26.919Z,63.13
2023-11-10T01:19:54.526Z,63.52
2023-11-10T01:22:21.830Z,63.66
2023-11-10T01:24:49.431Z,63.37
2023-11-10T01:27:16.799Z,63.29
2023-11-10T01:29:44.069Z,62.76
2023-11-10T01:32:12.095Z,63.38
2023-11-10T01:34:39.766Z,63.50
2023-11-10T01:37:07.537Z,63.46
2023-11-10T01:39:35.139Z,62.90
2023-11-10T01:42:06.279Z,62.68
2023-11-10T01:44:35.121Z,63.84
2023-11-10T01:47:04.925Z,63.29
2023-11-10T01:49:32.263Z,63.48
2023-11-10T01:51:59.511Z,63.72
2023-11-10T01:54:29.165Z,63.86
2023-11-10T01:56:56.492Z,63.74
2023-11-10T01:59:24.885Z,63.51
2023-11-10T02:01:52.810Z,63.90
2023-11-10T02:04:20.806Z,63.53
2023-11-10T02:06:48.509Z,63.23
2023-11-10T02:09:17.048Z,62.71
2023-11-10T02:11:45.177Z,63.18
2023-11-10T02:14:13.314Z,63.50
2023-11-10T02:16:40.888Z,63.92
2023-11-10T02:19:09.776Z,63.79
2023-11-10T02:21:37.305Z,63.70
2023-11-10T02:24:09.039Z,63.11
2023-11-10T02:26:36.502Z,63.65
2023-11-10T02:29:04.053Z,63.46
2023-11-10T02:31:33.120Z,63.67
2023-11-10T02:34:00.440Z,63.85
2023-11-10T02:36:30.313Z,63.79
2023-11-10T02:38:57.882Z,63.81
2023-11-10T02:41:27.065Z,63.18
2023-11-10T02:43:54.614Z,62.78
2023-11-10T02:46:21.933Z,62.92
2023-11-10T02:48:49.541Z,62.60
2023-11-10T02:51:17.116Z,63.05
2023-11-10T02:53:44.379Z,63.71
2023-11-10T02:56:11.639Z,62.95
2023-11-10T02:58:39.276Z,62.54
2023-11-10T03:01:06.678Z,62.80
2023-11-10T03:03:33.999Z,62.81
2023-11-10T03:06:01.596Z,62.57
2023-11-10T03:08:28.896Z,63.17
2023-11-10T03:10:58.378Z,63.25
2023-11-10T03:13:26.145Z,63.20
2023-11-10T03:15:53.425Z,63.63
2023-11-10T03:18:21.602Z,63.48
2023-11-10T03:20:49.221Z,63.95
2023-11-10T03:23:16.935Z,64.31
2023-11-10T03:25:44.199Z,63.87
2023-11-10T03:28:12.394Z,63.16
2023-11-10T03:30:39.739Z,63.34
2023-11-10T03:33:07.964Z,63.10
2023-11-10T03:35:35.478Z,62.92
2023-11-10T03:38:02.709Z,62.87
2023-11-10T03:40:30.010Z,62.58
2023-11-10T03:43:00.504Z,62.86
2023-11-10T03:45:27.830Z,63.84
2023-11-10T03:47:55.170Z,63.92
2023-11-10T03:50:22.714Z,64.28
2023-11-10T03:52:49.989Z,63.64
2023-11-10T03:55:17.242Z,64.04
2023-11-10T03:57:47.107Z,63.80
2023-11-10T04:00:14.523Z,63.07
2023-11-10T04:02:42.115Z,63.75
2023-11-10T04:05:09.486Z,62.90
2023-11-10T04:07:36.827Z,62.59
2023-11-10T04:10:05.198Z,63.01
2023-11-10T04:12:33.543Z,63.62
2023-11-10T04:15:00.789Z,63.90
2023-11-10T04:17:28.349Z,63.59
2023-11-10T04:19:55.631Z,63.76
2023-11-10T04:22:22.863Z,64.00
2023-11-10T04:25:09.148Z,63.62
2023-11-10T04:27:37.249Z,63.82
2023-11-10T04:30:05.095Z,64.18
2023-11-10T04:32:45.166Z,63.91
2023-11-10T04:35:15.620Z,64.11
2023-11-10T04:37:42.952Z,64.15
2023-11-10T04:40:13.132Z,64.28
2023-11-10T04:42:43.136Z,64.52
2023-11-10T04:45:13.912Z,64.32
2023-11-10T04:47:42.246Z,64.34
2023-11-10T04:50:09.860Z,64.25
2023-11-10T04:52:37.462Z,64.34
2023-11-10T04:55:05.221Z,63.98
2023-11-10T04:57:32.479Z,63.82
2023-11-10T05:00:02.108Z,64.37
2023-11-10T05:02:32.538Z,65.03
2023-11-10T05:05:01.358Z,64.24
2023-11-10T05:07:28.737Z,64.31
2023-11-10T05:09:56.340Z,64.50
2023-11-10T05:12:23.948Z,64.22
2023-11-10T05:14:51.554Z,64.52
2023-11-10T05:17:19.111Z,64.37
2023-11-10T05:19:47.285Z,64.10
2023-11-10T05:22:14.488Z,65.15
2023-11-10T05:24:44.809Z,65.10
2023-11-10T05:27:12.226Z,64.65
2023-11-10T05:29:39.477Z,64.78
2023-11-10T05:32:07.153Z,64.95
2023-11-10T05:34:34.443Z,64.55
2023-11-10T05:37:02.681Z,65.32
2023-11-10T05:39:31.704Z,65.32
2023-11-10T05:41:59.178Z,65.28
2023-11-10T05:44:26.467Z,67.39
2023-11-10T05:46:54.028Z,65.86
2023-11-10T05:49:21.307Z,65.90
2023-11-10T05:51:49.685Z,65.66
2023-11-10T05:54:17.625Z,65.54
2023-11-10T05:56:46.654Z,64.62
2023-11-10T05:59:13.900Z,64.50
2023-11-10T06:01:41.465Z,65.15
2023-11-10T06:04:19.235Z,64.92
2023-11-10T06:06:49.475Z,65.09
2023-11-10T06:09:23.922Z,65.37
2023-11-10T06:11:55.617Z,65.64
2023-11-10T06:14:24.405Z,65.54
2023-11-10T06:16:52.210Z,65.38
2023-11-10T06:19:19.718Z,64.89
2023-11-10T06:21:47.279Z,65.42
2023-11-10T06:24:15.059Z,65.32
2023-11-10T06:26:42.357Z,64.29
2023-11-10T06:29:09.994Z,65.59
2023-11-10T06:31:37.307Z,65.78
2023-11-10T06:34:06.195Z,64.68
2023-11-10T06:36:33.949Z,65.28
2023-11-10T06:39:03.036Z,64.63
2023-11-10T06:41:30.285Z,65.81
2023-11-10T06:43:58.010Z,64.93
2023-11-10T06:46:26.178Z,65.24
2023-11-10T06:48:54.275Z,64.81
2023-11-10T06:51:22.511Z,65.47
2023-11-10T06:53:49.774Z,65.39
2023-11-10T06:56:17.045Z,65.10
2023-11-10T06:58:44.619Z,65.67
2023-11-10T07:01:12.050Z,64.69
2023-11-10T07:03:39.470Z,64.40
2023-11-10T07:06:08.354Z,64.38
2023-11-10T07:08:36.293Z,64.36
2023-11-10T07:11:04.856Z,64.39
2023-11-10T07:13:32.431Z,65.10
2023-11-10T07:16:00.507Z,65.35
2023-11-10T07:18:29.283Z,64.98
2023-11-10T07:20:57.045Z,64.88
2023-11-10T07:23:24.413Z,64.51
2023-11-10T07:25:54.578Z,64.73
2023-11-10T07:28:22.154Z,64.75
2023-11-10T07:30:50.566Z,64.47
2023-11-10T07:33:17.898Z,64.47
2023-11-10T07:35:45.472Z,64.10
2023-11-10T07:38:12.791Z,63.55
2023-11-10T07:40:40.046Z,64.68
2023-11-10T07:43:07.693Z,63.76
2023-11-10T07:45:36.596Z,63.26
2023-11-10T07:48:04.259Z,63.33
2023-11-10T07:50:31.781Z,63.63
2023-11-10T07:52:59.379Z,62.13
2023-11-10T07:55:28.961Z,62.05
2023-11-10T07:57:56.640Z,62.19
2023-11-10T08:00:24.339Z,62.73
2023-11-10T08:02:54.317Z,62.45
2023-11-10T08:05:22.403Z,61.88
2023-11-10T08:07:54.404Z,61.41
2023-11-10T08:10:22.271Z,61.10
2023-11-10T08:12:50.721Z,60.84
2023-11-10T08:15:18.418Z,61.27
2023-11-10T08:17:46.102Z,60.71
2023-11-10T08:20:13.366Z,60.51
2023-11-10T08:22:40.893Z,60.56
2023-11-10T08:25:13.216Z,60.35
2023-11-10T08:27:40.898Z,60.26
2023-11-10T08:30:12.867Z,59.15
2023-11-10T08:32:41.983Z,59.12
2023-11-10T08:35:10.475Z,58.63
2023-11-10T08:37:38.959Z,58.01
2023-11-10T08:40:06.936Z,58.01
2023-11-10T08:42:34.906Z,57.04
2023-11-10T08:45:02.221Z,56.94
2023-11-10T08:47:30.267Z,57.47
2023-11-10T08:49:57.838Z,57.23
2023-11-10T08:52:26.157Z,57.15
2023-11-10T08:54:55.040Z,57.35
2023-11-10T08:57:23.114Z,57.15
2023-11-10T08:59:50.426Z,57.06
2023-11-10T09:02:17.667Z,57.01
2023-11-10T09:04:45.765Z,56.35
2023-11-10T09:07:13.384Z,56.34
2023-11-10T09:09:40.926Z,56.38
2023-11-10T09:12:08.466Z,56.43
2023-11-10T09:14:36.063Z,55.74
2023-11-10T09:17:04.724Z,56.07
2023-11-10T09:19:32.890Z,55.18
2023-11-10T09:22:00.520Z,55.21
2023-11-10T09:24:28.064Z,55.79
2023-11-10T09:26:58.059Z,56.48
2023-11-10T09:29:25.322Z,55.52
2023-11-10T09:31:52.800Z,55.98
2023-11-10T09:34:20.336Z,54.68
2023-11-10T09:36:47.709Z,54.77
2023-11-10T09:39:16.440Z,55.19
2023-11-10T09:41:44.991Z,55.44
2023-11-10T09:44:13.449Z,54.53
2023-11-10T09:46:41.052Z,54.32
2023-11-10T09:49:09.142Z,54.14
2023-11-10T09:51:36.444Z,53.90
2023-11-10T09:54:04.639Z,53.75
2023-11-10T09:56:36.799Z,54.13
2023-11-10T09:59:04.363Z,54.46
2023-11-10T10:01:31.952Z,54.04
2023-11-10T10:03:59.646Z,53.38
2023-11-10T10:06:27.527Z,53.91
2023-11-10T10:08:56.091Z,53.25
2023-11-10T10:11:23.767Z,53.28
2023-11-10T10:13:51.402Z,53.46
2023-11-10T10:16:19.033Z,53.07
2023-11-10T10:18:47.162Z,53.64
2023-11-10T10:21:14.459Z,53.41
2023-11-10T10:23:41.969Z,52.91
2023-11-10T10:26:11.484Z,53.30
2023-11-10T10:28:38.998Z,52.86
2023-11-10T10:31:09.409Z,52.96
2023-11-10T10:33:37.192Z,52.93
2023-11-10T10:36:05.705Z,53.33
2023-11-10T10:38:33.545Z,53.25
2023-11-10T10:41:03.199Z,52.65
2023-11-10T10:43:33.484Z,52.84
2023-11-10T10:46:08.451Z,52.81
2023-11-10T10:48:38.877Z,53.08
2023-11-10T10:51:07.109Z,53.24
2023-11-10T10:53:35.247Z,53.10
2023-11-10T10:56:03.044Z,52.04
2023-11-10T10:58:30.477Z,52.37
2023-11-10T11:00:59.789Z,51.43
2023-11-10T11:03:27.379Z,51.49
2023-11-10T11:06:16.008Z,51.97
2023-11-10T11:08:46.825Z,51.65
2023-11-10T11:11:20.275Z,52.00
2023-11-10T11:13:57.445Z,51.57
2023-11-10T11:16:29.009Z,51.92
2023-11-10T11:19:10.633Z,51.45
2023-11-10T11:21:38.435Z,51.99
2023-11-10T11:24:08.091Z,51.24
2023-11-10T11:26:35.431Z,51.23
2023-11-10T11:29:07.944Z,51.67
2023-11-10T11:31:48.527Z,51.03
2023-11-10T11:34:20.283Z,51.43
2023-11-10T11:36:49.111Z,51.58
2023-11-10T11:39:17.755Z,51.57
2023-11-10T11:41:51.560Z,51.48
2023-11-10T11:44:27.529Z,51.73
2023-11-10T11:46:56.353Z,51.94
2023-11-10T11:49:24.037Z,52.46
2023-11-10T11:51:51.323Z,52.90
2023-11-10T11:54:18.752Z,53.38
2023-11-10T11:56:46.368Z,53.85
2023-11-10T11:59:13.944Z,53.12
2023-11-10T12:01:41.287Z,53.60
2023-11-10T12:04:09.159Z,54.10
2023-11-10T12:06:37.157Z,54.80
2023-11-10T12:09:05.082Z,54.93
2023-11-10T12:11:32.908Z,55.08
2023-11-10T12:14:01.051Z,55.00
2023-11-10T12:19:04.934Z,55.46
2023-11-10T12:21:32.659Z,55.60
2023-11-10T12:24:06.453Z,56.26
2023-11-10T12:26:38.509Z,57.26
2023-11-10T12:29:06.359Z,56.62
2023-11-10T12:31:34.335Z,56.40
2023-11-10T12:34:02.246Z,56.43
2023-11-10T12:36:36.761Z,57.23
2023-11-10T12:39:10.741Z,57.08
2023-11-10T12:41:38.373Z,56.95
2023-11-10T12:44:06.371Z,56.99
2023-11-10T12:46:33.821Z,57.11
2023-11-10T12:49:02.306Z,56.59
2023-11-10T12:51:31.876Z,57.25
2023-11-10T12:54:09.714Z,57.83
2023-11-10T12:56:37.944Z,58.04
2023-11-10T12:59:07.432Z,58.22
2023-11-10T13:01:34.965Z,58.04
2023-11-10T13:04:04.357Z,58.19
2023-11-10T13:06:32.342Z,58.38
2023-11-10T13:09:00.127Z,58.09
2023-11-10T13:11:30.561Z,58.69
2023-11-10T13:13:58.688Z,58.66
2023-11-10T13:16:26.060Z,58.16
2023-11-10T13:18:54.021Z,58.23
2023-11-10T13:21:21.362Z,58.15
2023-11-10T13:23:50.247Z,57.99
2023-11-10T13:26:23.140Z,58.19
2023-11-10T13:28:52.471Z,58.00
2023-11-10T13:31:27.369Z,57.88
2023-11-10T13:33:56.129Z,58.65
2023-11-10T13:36:23.669Z,58.27
2023-11-10T13:38:51.613Z,58.19
2023-11-10T13:41:19.031Z,58.30
2023-11-10T13:43:46.568Z,58.56
2023-11-10T13:46:15.754Z,58.48
2023-11-10T13:48:47.177Z,59.00
2023-11-10T13:51:15.554Z,59.00
2023-11-10T13:53:43.092Z,58.50
2023-11-10T13:56:10.808Z,58.54
2023-11-10T13:58:38.520Z,58.88
2023-11-10T14:01:09.267Z,58.50
2023-11-10T14:03:38.792Z,58.87
2023-11-10T14:06:10.628Z,62.07
2023-11-10T14:08:41.479Z,60.00
2023-11-10T14:11:09.872Z,58.93
2023-11-10T14:13:37.505Z,58.94
2023-11-10T14:16:11.196Z,59.61
2023-11-10T14:18:40.076Z,59.31
2023-11-10T14:21:09.611Z,60.14
2023-11-10T14:23:36.947Z,59.75
2023-11-10T14:26:07.715Z,60.30
2023-11-10T14:28:36.104Z,60.39
2023-11-10T14:31:03.693Z,60.48
2023-11-10T14:33:31.208Z,60.98
2023-11-10T14:36:02.970Z,61.18
2023-11-10T14:38:38.892Z,60.85
2023-11-10T14:41:12.559Z,61.34
2023-11-10T14:43:40.019Z,62.16
2023-11-10T14:46:09.798Z,61.74
2023-11-10T14:48:47.654Z,62.38
2023-11-10T14:51:26.876Z,62.44
2023-11-10T14:53:54.706Z,62.92
2023-11-10T14:56:22.091Z,62.37
2023-11-10T14:58:49.716Z,62.71
2023-11-10T15:01:20.510Z,63.01
2023-11-10T15:03:49.641Z,62.61
2023-11-10T15:06:19.982Z,63.78
2023-11-10T15:08:47.776Z,64.19
2023-11-10T15:11:16.024Z,63.83
2023-11-10T15:13:43.858Z,64.63
2023-11-10T15:16:11.925Z,64.27
2023-11-10T15:18:40.299Z,63.89
2023-11-10T15:21:08.134Z,63.73
2023-11-10T15:23:36.646Z,63.76
2023-11-10T15:26:04.311Z,64.00
2023-11-10T15:28:35.334Z,63.87
2023-11-10T15:31:06.762Z,64.35
2023-11-10T15:33:36.252Z,64.34
2023-11-10T15:36:04.568Z,64.36
2023-11-10T15:38:32.426Z,64.47
2023-11-10T15:41:01.635Z,64.53
2023-11-10T15:43:29.321Z,64.57
2023-11-10T15:45:58.617Z,64.58
2023-11-10T15:48:36.980Z,64.66
2023-11-10T15:51:08.045Z,64.43
2023-11-10T15:53:36.272Z,63.81
2023-11-10T15:56:03.624Z,64.55
2023-11-10T15:58:31.190Z,65.60
2023-11-10T16:00:58.856Z,65.45
2023-11-10T16:03:26.848Z,65.03
2023-11-10T16:05:56.149Z,65.26
2023-11-10T16:08:23.921Z,65.09
2023-11-10T16:10:52.171Z,64.91
2023-11-10T16:13:19.405Z,65.25
2023-11-10T16:15:46.648Z,65.68
2023-11-10T16:18:14.886Z,66.22
2023-11-10T16:20:42.135Z,66.05
2023-11-10T16:23:09.394Z,65.81
2023-11-10T16:25:37.357Z,66.02
2023-11-10T16:28:05.764Z,65.93
2023-11-10T16:30:33.742Z,66.12
2023-11-10T16:33:01.603Z,65.96
2023-11-10T16:35:29.769Z,66.45
2023-11-10T16:37:57.313Z,66.31
2023-11-10T16:40:25.230Z,67.63
2023-11-10T16:42:53.303Z,67.16
2023-11-10T16:45:21.379Z,67.26
2023-11-10T16:47:49.632Z,67.95
2023-11-10T16:50:17.162Z,67.47
2023-11-10T16:52:45.318Z,67.40
2023-11-10T16:55:12.980Z,67.30
2023-11-10T16:57:40.514Z,67.35
2023-11-10T17:00:14.965Z,67.73
2023-11-10T17:02:46.261Z,68.16
2023-11-10T17:05:23.641Z,68.36
2023-11-10T17:07:51.479Z,67.85
2023-11-10T17:10:19.246Z,68.25
2023-11-10T17:12:46.731Z,68.63
2023-11-10T17:15:14.448Z,68.35
2023-11-10T17:17:43.582Z,69.71
2023-11-10T17:20:11.854Z,69.42
2023-11-10T17:22:39.693Z,69.09
2023-11-10T17:25:07.492Z,68.77
2023-11-10T17:27:35.626Z,69.82
2023-11-10T17:30:03.601Z,69.95
2023-11-10T17:32:31.934Z,69.33
2023-11-10T17:34:59.864Z,69.61
2023-11-10T17:37:28.246Z,70.26
2023-11-10T17:39:55.622Z,69.92
2023-11-10T17:42:23.812Z,70.42
2023-11-10T17:44:51.589Z,70.26
2023-11-10T17:47:19.611Z,70.45
2023-11-10T17:49:48.165Z,70.07
2023-11-10T17:52:15.900Z,70.27
2023-11-10T17:54:43.226Z,70.88
2023-11-10T17:57:10.916Z,70.96
2023-11-10T17:59:38.521Z,70.39
2023-11-10T18:02:07.309Z,70.51
2023-11-10T18:04:37.251Z,70.62
2023-11-10T18:07:12.942Z,70.55
2023-11-10T18:09:41.340Z,70.63
2023-11-10T18:12:10.267Z,70.32
2023-11-10T18:14:39.088Z,70.68
2023-11-10T18:17:07.871Z,70.47
2023-11-10T18:19:35.598Z,71.19
2023-11-10T18:22:04.642Z,70.90
2023-11-10T18:24:34.091Z,70.75
2023-11-10T18:27:04.535Z,71.31
2023-11-10T18:29:36.372Z,71.14
2023-11-10T18:32:05.595Z,71.23
2023-11-10T18:34:34.531Z,70.83
2023-11-10T18:37:03.299Z,70.77
2023-11-10T18:39:32.092Z,70.41
2023-11-10T18:42:01.354Z,70.36
2023-11-10T18:44:30.137Z,70.32
2023-11-10T18:46:58.564Z,70.73
2023-11-10T18:49:30.958Z,70.47
2023-11-10T18:52:00.800Z,70.51
2023-11-10T18:54:31.769Z,70.65
2023-11-10T18:57:02.745Z,70.86
2023-11-10T18:59:32.932Z,71.05
2023-11-10T19:02:01.733Z,70.41
2023-11-10T19:04:30.704Z,70.74
2023-11-10T19:07:00.076Z,71.04
2023-11-10T19:09:29.292Z,70.97
2023-11-10T19:11:58.172Z,70.77
2023-11-10T19:14:28.647Z,71.42
2023-11-10T19:16:58.371Z,71.06
2023-11-10T19:19:28.565Z,70.97
2023-11-10T19:21:58.566Z,71.72
2023-11-10T19:24:27.696Z,70.97
2023-11-10T19:26:56.628Z,71.35
2023-11-10T19:29:26.000Z,71.60
2023-11-10T19:31:57.452Z,71.52
2023-11-10T19:34:26.379Z,71.66
2023-11-10T19:36:58.710Z,71.60
2023-11-10T19:39:28.191Z,90.37
2023-11-10T19:42:00.499Z,82.53
2023-11-10T19:44:29.704Z,77.18
2023-11-10T19:46:58.761Z,76.47
2023-11-10T19:49:27.340Z,75.47
2023-11-10T19:57:00.003Z,72.87
2023-11-10T19:59:29.815Z,72.96
2023-11-10T20:01:59.128Z,72.25
2023-11-10T20:04:28.765Z,72.27
2023-11-10T20:06:57.848Z,71.63
2023-11-10T20:09:29.117Z,71.84
2023-11-10T20:12:04.641Z,72.25
2023-11-10T20:14:33.745Z,71.91
2023-11-10T20:17:03.292Z,71.77
2023-11-10T20:19:35.361Z,72.01
2023-11-10T20:22:05.971Z,72.01
2023-11-10T20:24:36.071Z,72.42
2023-11-10T20:27:06.877Z,74.21
2023-11-10T20:29:36.064Z,74.10
2023-11-10T20:32:07.797Z,73.68
2023-11-10T20:34:39.115Z,72.86
2023-11-10T20:37:09.123Z,73.48
2023-11-10T20:39:38.702Z,72.79
2023-11-10T20:42:08.602Z,73.72
2023-11-10T20:44:38.771Z,72.80
2023-11-10T20:47:07.812Z,73.26
2023-11-10T20:49:37.028Z,72.62
2023-11-10T20:52:05.863Z,72.08
2023-11-10T20:54:35.680Z,72.31
2023-11-10T20:57:04.728Z,72.49
2023-11-10T20:59:33.679Z,71.99
2023-11-10T21:02:02.844Z,72.49
2023-11-10T21:04:30.128Z,71.80
2023-11-10T21:06:58.349Z,71.93
2023-11-10T21:09:27.330Z,71.74
2023-11-10T21:11:55.235Z,72.23
2023-11-10T21:14:23.681Z,71.78
2023-11-10T21:16:51.366Z,71.76
2023-11-10T21:19:18.743Z,71.80
2023-11-10T21:21:47.265Z,72.00
2023-11-10T21:24:15.696Z,71.82
2023-11-10T21:26:46.686Z,71.95
2023-11-10T21:29:13.952Z,71.65
2023-11-10T21:31:42.076Z,71.47
2023-11-10T21:34:09.629Z,71.43
2023-11-10T21:36:38.868Z,71.39
2023-11-10T21:39:12.310Z,71.13
2023-11-10T21:41:39.893Z,71.36
2023-11-10T21:44:11.238Z,71.00
2023-11-10T21:46:38.904Z,71.40
2023-11-10T21:49:06.242Z,71.09
2023-11-10T21:51:35.148Z,71.27
2023-11-10T21:54:02.916Z,71.08
2023-11-10T21:56:30.393Z,70.94
2023-11-10T21:58:57.903Z,70.80
2023-11-10T22:01:25.539Z,70.64
2023-11-10T22:03:53.649Z,71.24
2023-11-10T22:06:21.037Z,70.79
2023-11-10T22:08:48.317Z,70.65
2023-11-10T22:11:15.860Z,70.51
2023-11-10T22:13:43.452Z,70.50
2023-11-10T22:16:10.722Z,70.13
2023-11-10T22:18:38.875Z,70.44
2023-11-10T22:21:06.202Z,70.39
2023-11-10T22:23:33.525Z,70.57
2023-11-10T22:26:02.858Z,70.34
2023-11-10T22:28:30.614Z,70.45
2023-11-10T22:30:58.089Z,70.21
2023-11-10T22:33:25.812Z,70.37
2023-11-10T22:35:53.185Z,70.15
2023-11-10T22:38:20.803Z,70.01
2023-11-10T22:40:51.797Z,70.03
2023-11-10T22:43:19.372Z,69.25
2023-11-10T22:45:46.997Z,69.30
2023-11-10T22:48:14.933Z,69.62
2023-11-10T22:50:42.315Z,69.48
2023-11-10T22:53:09.815Z,69.91
2023-11-10T22:55:37.399Z,69.78
2023-11-10T22:58:05.433Z,69.83
2023-11-10T23:00:36.427Z,70.15
2023-11-10T23:03:05.533Z,69.76
2023-11-10T23:05:33.361Z,69.86
2023-11-10T23:08:00.834Z,69.99
2023-11-10T23:10:28.312Z,69.58
2023-11-10T23:12:59.427Z,69.36
2023-11-10T23:15:27.725Z,69.44
2023-11-10T23:17:57.775Z,69.67
2023-11-10T23:20:32.932Z,69.90
2023-11-10T23:23:03.395Z,69.54
2023-11-10T23:25:31.089Z,70.02
2023-11-10T23:27:58.458Z,69.69
2023-11-10T23:30:26.167Z,70.24
2023-11-10T23:32:53.624Z,70.26
2023-11-10T23:35:21.147Z,70.18
2023-11-10T23:37:49.537Z,69.88
2023-11-10T23:40:16.867Z,70.06
2023-11-10T23:42:44.248Z,69.38
2023-11-10T23:45:11.983Z,69.75
2023-11-10T23:47:39.564Z,69.08
2023-11-10T23:50:08.037Z,69.37
2023-11-10T23:52:36.173Z,69.12
2023-11-10T23:55:04.411Z,69.32
2023-11-10T23:57:33.391Z,68.71
